sensor_id;sensor_type;location;lat;lon;timestamp;P1;durP1;ratioP1;P2;durP2;ratioP2
28483;SDS011;15704;48.834;8.736;2022-09-23T00:00:09;4.57;;;2.60;;
28483;SDS011;15704;48.834;8.736;2022-09-23T00:03:57;6.93;;;2.63;;
28483;SDS011;15704;48.834;8.736;2022-09-23T00:07:40;4.35;;;2.65;;
28483;SDS011;15704;48.834;8.736;2022-09-23T00:11:23;6.00;;;2.30;;
28483;SDS011;15704;48.834;8.736;2022-09-23T00:15:07;3.92;;;2.10;;
28483;SDS011;15704;48.834;8.736;2022-09-23T00:18:51;2.92;;;2.10;;
28483;SDS011;15704;48.834;8.736;2022-09-23T00:22:35;3.72;;;2.35;;
28483;SDS011;15704;48.834;8.736;2022-09-23T00:26:19;6.47;;;2.20;;
28483;SDS011;15704;48.834;8.736;2022-09-23T00:30:04;2.85;;;1.80;;
28483;SDS011;15704;48.834;8.736;2022-09-23T00:33:52;3.70;;;2.33;;
28483;SDS011;15704;48.834;8.736;2022-09-23T00:37:38;6.60;;;2.17;;
28483;SDS011;15704;48.834;8.736;2022-09-23T00:41:20;3.97;;;2.30;;
28483;SDS011;15704;48.834;8.736;2022-09-23T00:45:03;5.83;;;2.63;;
28483;SDS011;15704;48.834;8.736;2022-09-23T00:48:51;2.63;;;1.90;;
28483;SDS011;15704;48.834;8.736;2022-09-23T00:52:40;6.03;;;2.13;;
28483;SDS011;15704;48.834;8.736;2022-09-23T00:56:24;3.72;;;2.25;;
28483;SDS011;15704;48.834;8.736;2022-09-23T01:00:07;4.38;;;2.47;;
28483;SDS011;15704;48.834;8.736;2022-09-23T01:03:51;5.18;;;2.17;;
28483;SDS011;15704;48.834;8.736;2022-09-23T01:07:35;2.78;;;1.80;;
28483;SDS011;15704;48.834;8.736;2022-09-23T01:11:22;2.90;;;2.23;;
28483;SDS011;15704;48.834;8.736;2022-09-23T01:15:16;3.92;;;1.77;;
28483;SDS011;15704;48.834;8.736;2022-09-23T01:19:04;2.53;;;1.85;;
28483;SDS011;15704;48.834;8.736;2022-09-23T01:22:53;2.90;;;2.00;;
28483;SDS011;15704;48.834;8.736;2022-09-23T01:26:59;7.53;;;2.42;;
28483;SDS011;15704;48.834;8.736;2022-09-23T01:30:50;3.08;;;2.08;;
28483;SDS011;15704;48.834;8.736;2022-09-23T01:34:38;7.93;;;2.88;;
28483;SDS011;15704;48.834;8.736;2022-09-23T01:38:31;3.33;;;1.92;;
28483;SDS011;15704;48.834;8.736;2022-09-23T01:42:20;2.13;;;1.77;;
28483;SDS011;15704;48.834;8.736;2022-09-23T01:46:13;3.42;;;2.10;;
28483;SDS011;15704;48.834;8.736;2022-09-23T01:50:01;5.85;;;2.30;;
28483;SDS011;15704;48.834;8.736;2022-09-23T01:54:08;3.65;;;1.80;;
28483;SDS011;15704;48.834;8.736;2022-09-23T01:57:56;4.95;;;2.17;;
28483;SDS011;15704;48.834;8.736;2022-09-23T02:01:48;4.72;;;2.35;;
28483;SDS011;15704;48.834;8.736;2022-09-23T02:05:35;3.50;;;2.10;;
28483;SDS011;15704;48.834;8.736;2022-09-23T02:09:21;2.10;;;1.75;;
28483;SDS011;15704;48.834;8.736;2022-09-23T02:13:07;3.03;;;2.38;;
28483;SDS011;15704;48.834;8.736;2022-09-23T02:16:57;3.53;;;2.00;;
28483;SDS011;15704;48.834;8.736;2022-09-23T02:20:44;2.65;;;1.90;;
28483;SDS011;15704;48.834;8.736;2022-09-23T02:24:28;2.92;;;2.30;;
28483;SDS011;15704;48.834;8.736;2022-09-23T02:28:13;6.53;;;2.10;;
28483;SDS011;15704;48.834;8.736;2022-09-23T02:32:02;3.72;;;2.00;;
28483;SDS011;15704;48.834;8.736;2022-09-23T02:35:52;5.78;;;2.22;;
28483;SDS011;15704;48.834;8.736;2022-09-23T02:39:38;8.30;;;1.90;;
28483;SDS011;15704;48.834;8.736;2022-09-23T02:47:18;2.50;;;1.75;;
28483;SDS011;15704;48.834;8.736;2022-09-23T02:51:05;5.63;;;2.00;;
28483;SDS011;15704;48.834;8.736;2022-09-23T02:54:48;2.53;;;1.98;;
28483;SDS011;15704;48.834;8.736;2022-09-23T02:58:31;2.40;;;1.67;;
28483;SDS011;15704;48.834;8.736;2022-09-23T03:02:18;2.58;;;2.08;;
28483;SDS011;15704;48.834;8.736;2022-09-23T03:06:24;2.67;;;1.98;;
28483;SDS011;15704;48.834;8.736;2022-09-23T03:10:14;3.15;;;1.98;;
28483;SDS011;15704;48.834;8.736;2022-09-23T03:14:04;4.20;;;1.85;;
28483;SDS011;15704;48.834;8.736;2022-09-23T03:18:00;3.40;;;2.00;;
28483;SDS011;15704;48.834;8.736;2022-09-23T03:21:55;3.85;;;1.92;;
28483;SDS011;15704;48.834;8.736;2022-09-23T03:25:44;3.28;;;2.08;;
28483;SDS011;15704;48.834;8.736;2022-09-23T03:29:30;2.25;;;1.77;;
28483;SDS011;15704;48.834;8.736;2022-09-23T03:33:21;5.40;;;2.28;;
28483;SDS011;15704;48.834;8.736;2022-09-23T03:37:10;2.78;;;2.17;;
28483;SDS011;15704;48.834;8.736;2022-09-23T03:40:57;4.35;;;2.47;;
28483;SDS011;15704;48.834;8.736;2022-09-23T03:44:43;3.75;;;2.20;;
28483;SDS011;15704;48.834;8.736;2022-09-23T03:48:28;3.42;;;1.90;;
28483;SDS011;15704;48.834;8.736;2022-09-23T03:52:10;10.38;;;2.05;;
28483;SDS011;15704;48.834;8.736;2022-09-23T03:55:53;11.97;;;2.80;;
28483;SDS011;15704;48.834;8.736;2022-09-23T03:59:36;5.28;;;2.42;;
28483;SDS011;15704;48.834;8.736;2022-09-23T04:03:19;6.97;;;3.20;;
28483;SDS011;15704;48.834;8.736;2022-09-23T04:10:46;4.43;;;2.33;;
28483;SDS011;15704;48.834;8.736;2022-09-23T04:14:34;3.53;;;2.47;;
28483;SDS011;15704;48.834;8.736;2022-09-23T04:18:17;5.17;;;2.83;;
28483;SDS011;15704;48.834;8.736;2022-09-23T04:22:00;3.95;;;2.67;;
28483;SDS011;15704;48.834;8.736;2022-09-23T04:25:45;3.00;;;2.22;;
28483;SDS011;15704;48.834;8.736;2022-09-23T04:29:28;4.38;;;1.80;;
28483;SDS011;15704;48.834;8.736;2022-09-23T04:33:11;3.23;;;1.97;;
28483;SDS011;15704;48.834;8.736;2022-09-23T04:36:54;2.83;;;1.90;;
28483;SDS011;15704;48.834;8.736;2022-09-23T04:40:37;3.37;;;2.43;;
28483;SDS011;15704;48.834;8.736;2022-09-23T04:44:23;4.55;;;2.00;;
28483;SDS011;15704;48.834;8.736;2022-09-23T04:48:08;3.20;;;2.00;;
28483;SDS011;15704;48.834;8.736;2022-09-23T04:51:53;2.50;;;1.98;;
28483;SDS011;15704;48.834;8.736;2022-09-23T04:55:38;1.85;;;1.55;;
28483;SDS011;15704;48.834;8.736;2022-09-23T04:59:23;4.60;;;2.03;;
28483;SDS011;15704;48.834;8.736;2022-09-23T05:03:05;2.90;;;1.90;;
28483;SDS011;15704;48.834;8.736;2022-09-23T05:06:48;3.15;;;1.83;;
28483;SDS011;15704;48.834;8.736;2022-09-23T05:10:31;3.58;;;2.13;;
28483;SDS011;15704;48.834;8.736;2022-09-23T05:14:14;5.82;;;2.00;;
28483;SDS011;15704;48.834;8.736;2022-09-23T05:17:58;6.45;;;2.00;;
28483;SDS011;15704;48.834;8.736;2022-09-23T05:21:42;4.72;;;2.72;;
28483;SDS011;15704;48.834;8.736;2022-09-23T05:25:24;5.07;;;2.10;;
28483;SDS011;15704;48.834;8.736;2022-09-23T05:29:10;4.57;;;1.83;;
28483;SDS011;15704;48.834;8.736;2022-09-23T05:32:52;2.93;;;1.63;;
28483;SDS011;15704;48.834;8.736;2022-09-23T05:36:37;3.45;;;1.90;;
28483;SDS011;15704;48.834;8.736;2022-09-23T05:40:19;3.38;;;1.70;;
28483;SDS011;15704;48.834;8.736;2022-09-23T05:44:03;2.15;;;1.60;;
28483;SDS011;15704;48.834;8.736;2022-09-23T05:47:45;2.85;;;1.88;;
28483;SDS011;15704;48.834;8.736;2022-09-23T05:51:28;2.83;;;1.70;;
28483;SDS011;15704;48.834;8.736;2022-09-23T05:58:57;2.70;;;1.70;;
28483;SDS011;15704;48.834;8.736;2022-09-23T06:02:41;3.15;;;1.58;;
28483;SDS011;15704;48.834;8.736;2022-09-23T06:06:25;2.65;;;1.70;;
28483;SDS011;15704;48.834;8.736;2022-09-23T06:10:09;5.70;;;2.30;;
28483;SDS011;15704;48.834;8.736;2022-09-23T06:13:57;3.35;;;1.92;;
28483;SDS011;15704;48.834;8.736;2022-09-23T06:17:42;3.65;;;2.10;;
28483;SDS011;15704;48.834;8.736;2022-09-23T06:21:27;3.10;;;1.87;;
28483;SDS011;15704;48.834;8.736;2022-09-23T06:25:10;8.98;;;1.90;;
28483;SDS011;15704;48.834;8.736;2022-09-23T06:28:54;6.03;;;1.40;;
28483;SDS011;15704;48.834;8.736;2022-09-23T06:32:37;3.95;;;1.80;;
28483;SDS011;15704;48.834;8.736;2022-09-23T06:36:23;3.07;;;1.70;;
28483;SDS011;15704;48.834;8.736;2022-09-23T06:40:22;3.08;;;1.60;;
28483;SDS011;15704;48.834;8.736;2022-09-23T06:44:06;4.10;;;1.73;;
28483;SDS011;15704;48.834;8.736;2022-09-23T06:47:52;2.72;;;1.75;;
28483;SDS011;15704;48.834;8.736;2022-09-23T06:51:37;2.63;;;1.55;;
28483;SDS011;15704;48.834;8.736;2022-09-23T06:55:23;2.22;;;1.60;;
28483;SDS011;15704;48.834;8.736;2022-09-23T06:59:09;3.83;;;1.70;;
28483;SDS011;15704;48.834;8.736;2022-09-23T07:02:55;3.17;;;2.00;;
28483;SDS011;15704;48.834;8.736;2022-09-23T07:06:38;4.10;;;2.33;;
28483;SDS011;15704;48.834;8.736;2022-09-23T07:10:23;30.67;;;4.32;;
28483;SDS011;15704;48.834;8.736;2022-09-23T07:14:10;12.75;;;3.13;;
28483;SDS011;15704;48.834;8.736;2022-09-23T07:17:53;31.13;;;3.38;;
28483;SDS011;15704;48.834;8.736;2022-09-23T07:21:37;3.63;;;2.30;;
28483;SDS011;15704;48.834;8.736;2022-09-23T07:25:22;11.63;;;2.60;;
28483;SDS011;15704;48.834;8.736;2022-09-23T07:29:04;3.92;;;2.35;;
28483;SDS011;15704;48.834;8.736;2022-09-23T07:32:49;6.22;;;2.70;;
28483;SDS011;15704;48.834;8.736;2022-09-23T07:36:31;7.75;;;2.60;;
28483;SDS011;15704;48.834;8.736;2022-09-23T07:40:17;138.05;;;9.75;;
28483;SDS011;15704;48.834;8.736;2022-09-23T07:44:00;41.42;;;4.78;;
28483;SDS011;15704;48.834;8.736;2022-09-23T07:47:43;3.22;;;2.10;;
28483;SDS011;15704;48.834;8.736;2022-09-23T07:51:28;8.23;;;2.40;;
28483;SDS011;15704;48.834;8.736;2022-09-23T07:55:16;2.88;;;1.92;;
28483;SDS011;15704;48.834;8.736;2022-09-23T07:59:00;6.88;;;2.22;;
28483;SDS011;15704;48.834;8.736;2022-09-23T08:02:44;6.78;;;2.72;;
28483;SDS011;15704;48.834;8.736;2022-09-23T08:06:34;5.32;;;2.40;;
28483;SDS011;15704;48.834;8.736;2022-09-23T08:10:17;4.35;;;2.00;;
28483;SDS011;15704;48.834;8.736;2022-09-23T08:14:01;4.38;;;2.58;;
28483;SDS011;15704;48.834;8.736;2022-09-23T08:17:44;2.55;;;2.05;;
28483;SDS011;15704;48.834;8.736;2022-09-23T08:21:26;3.43;;;2.30;;
28483;SDS011;15704;48.834;8.736;2022-09-23T08:25:14;2.15;;;1.83;;
28483;SDS011;15704;48.834;8.736;2022-09-23T08:29:04;2.53;;;1.85;;
28483;SDS011;15704;48.834;8.736;2022-09-23T08:32:49;5.40;;;2.00;;
28483;SDS011;15704;48.834;8.736;2022-09-23T08:36:32;3.63;;;1.80;;
28483;SDS011;15704;48.834;8.736;2022-09-23T08:40:17;5.45;;;1.83;;
28483;SDS011;15704;48.834;8.736;2022-09-23T08:44:01;3.38;;;1.60;;
28483;SDS011;15704;48.834;8.736;2022-09-23T08:47:49;3.25;;;2.00;;
28483;SDS011;15704;48.834;8.736;2022-09-23T08:51:37;7.50;;;1.90;;
28483;SDS011;15704;48.834;8.736;2022-09-23T08:55:29;4.65;;;1.95;;
28483;SDS011;15704;48.834;8.736;2022-09-23T08:59:16;5.97;;;2.00;;
28483;SDS011;15704;48.834;8.736;2022-09-23T09:03:08;5.50;;;1.90;;
28483;SDS011;15704;48.834;8.736;2022-09-23T09:07:01;2.80;;;1.70;;
28483;SDS011;15704;48.834;8.736;2022-09-23T09:11:15;3.55;;;1.90;;
28483;SDS011;15704;48.834;8.736;2022-09-23T09:15:00;3.72;;;1.95;;
28483;SDS011;15704;48.834;8.736;2022-09-23T09:18:49;2.97;;;1.88;;
28483;SDS011;15704;48.834;8.736;2022-09-23T09:22:41;2.53;;;1.83;;
28483;SDS011;15704;48.834;8.736;2022-09-23T09:26:34;3.33;;;1.95;;
28483;SDS011;15704;48.834;8.736;2022-09-23T09:30:19;2.15;;;1.75;;
28483;SDS011;15704;48.834;8.736;2022-09-23T09:34:03;2.22;;;1.73;;
28483;SDS011;15704;48.834;8.736;2022-09-23T09:37:53;3.33;;;1.70;;
28483;SDS011;15704;48.834;8.736;2022-09-23T09:41:37;4.25;;;2.10;;
28483;SDS011;15704;48.834;8.736;2022-09-23T09:45:27;5.28;;;1.85;;
28483;SDS011;15704;48.834;8.736;2022-09-23T09:49:23;3.97;;;1.88;;
28483;SDS011;15704;48.834;8.736;2022-09-23T09:53:22;3.33;;;1.90;;
28483;SDS011;15704;48.834;8.736;2022-09-23T09:57:09;3.17;;;1.80;;
28483;SDS011;15704;48.834;8.736;2022-09-23T10:00:59;4.22;;;2.40;;
28483;SDS011;15704;48.834;8.736;2022-09-23T10:04:41;4.78;;;2.42;;
28483;SDS011;15704;48.834;8.736;2022-09-23T10:08:26;3.15;;;2.28;;
28483;SDS011;15704;48.834;8.736;2022-09-23T10:12:14;6.22;;;2.20;;
28483;SDS011;15704;48.834;8.736;2022-09-23T10:15:58;5.35;;;2.25;;
28483;SDS011;15704;48.834;8.736;2022-09-23T10:19:44;11.40;;;2.65;;
28483;SDS011;15704;48.834;8.736;2022-09-23T10:23:29;2.53;;;1.80;;
28483;SDS011;15704;48.834;8.736;2022-09-23T10:27:14;7.97;;;2.47;;
28483;SDS011;15704;48.834;8.736;2022-09-23T10:31:07;4.38;;;2.38;;
28483;SDS011;15704;48.834;8.736;2022-09-23T10:34:54;7.25;;;2.30;;
28483;SDS011;15704;48.834;8.736;2022-09-23T10:38:38;3.38;;;2.28;;
28483;SDS011;15704;48.834;8.736;2022-09-23T10:42:27;2.67;;;1.80;;
28483;SDS011;15704;48.834;8.736;2022-09-23T10:46:41;11.68;;;2.55;;
28483;SDS011;15704;48.834;8.736;2022-09-23T10:50:34;5.93;;;2.30;;
28483;SDS011;15704;48.834;8.736;2022-09-23T10:54:23;7.00;;;2.30;;
28483;SDS011;15704;48.834;8.736;2022-09-23T10:58:19;6.22;;;2.70;;
28483;SDS011;15704;48.834;8.736;2022-09-23T11:02:25;6.00;;;2.90;;
28483;SDS011;15704;48.834;8.736;2022-09-23T11:06:22;4.50;;;2.63;;
28483;SDS011;15704;48.834;8.736;2022-09-23T11:14:34;7.05;;;2.55;;
28483;SDS011;15704;48.834;8.736;2022-09-23T11:18:29;5.13;;;2.80;;
28483;SDS011;15704;48.834;8.736;2022-09-23T11:22:32;4.15;;;2.70;;
28483;SDS011;15704;48.834;8.736;2022-09-23T11:26:38;5.40;;;2.70;;
28483;SDS011;15704;48.834;8.736;2022-09-23T11:30:29;8.82;;;2.83;;
28483;SDS011;15704;48.834;8.736;2022-09-23T11:34:30;4.23;;;2.70;;
28483;SDS011;15704;48.834;8.736;2022-09-23T11:38:25;9.07;;;2.60;;
28483;SDS011;15704;48.834;8.736;2022-09-23T11:42:13;3.05;;;2.65;;
28483;SDS011;15704;48.834;8.736;2022-09-23T11:46:05;9.00;;;2.83;;
28483;SDS011;15704;48.834;8.736;2022-09-23T11:49:54;5.13;;;2.53;;
28483;SDS011;15704;48.834;8.736;2022-09-23T11:53:42;6.78;;;2.83;;
28483;SDS011;15704;48.834;8.736;2022-09-23T11:57:30;8.60;;;2.40;;
28483;SDS011;15704;48.834;8.736;2022-09-23T12:01:31;3.50;;;2.15;;
28483;SDS011;15704;48.834;8.736;2022-09-23T12:05:24;11.52;;;2.33;;
28483;SDS011;15704;48.834;8.736;2022-09-23T12:09:14;4.97;;;2.30;;
28483;SDS011;15704;48.834;8.736;2022-09-23T12:13:23;4.47;;;2.13;;
28483;SDS011;15704;48.834;8.736;2022-09-23T12:17:24;14.55;;;2.83;;
28483;SDS011;15704;48.834;8.736;2022-09-23T12:25:33;4.10;;;2.60;;
28483;SDS011;15704;48.834;8.736;2022-09-23T12:29:23;5.43;;;2.67;;
28483;SDS011;15704;48.834;8.736;2022-09-23T12:33:15;9.55;;;2.50;;
28483;SDS011;15704;48.834;8.736;2022-09-23T12:37:04;3.17;;;2.33;;
28483;SDS011;15704;48.834;8.736;2022-09-23T12:40:47;9.30;;;2.97;;
28483;SDS011;15704;48.834;8.736;2022-09-23T12:44:36;5.47;;;3.05;;
28483;SDS011;15704;48.834;8.736;2022-09-23T12:48:37;5.53;;;3.05;;
28483;SDS011;15704;48.834;8.736;2022-09-23T12:52:26;4.82;;;2.53;;
28483;SDS011;15704;48.834;8.736;2022-09-23T12:56:15;5.90;;;2.60;;
28483;SDS011;15704;48.834;8.736;2022-09-23T13:00:12;6.03;;;2.47;;
28483;SDS011;15704;48.834;8.736;2022-09-23T13:04:04;4.53;;;2.50;;
28483;SDS011;15704;48.834;8.736;2022-09-23T13:08:05;11.77;;;2.50;;
28483;SDS011;15704;48.834;8.736;2022-09-23T13:11:50;8.98;;;2.47;;
28483;SDS011;15704;48.834;8.736;2022-09-23T13:15:39;3.83;;;2.65;;
28483;SDS011;15704;48.834;8.736;2022-09-23T13:19:43;6.05;;;2.53;;
28483;SDS011;15704;48.834;8.736;2022-09-23T13:23:27;3.08;;;2.50;;
28483;SDS011;15704;48.834;8.736;2022-09-23T13:27:14;6.38;;;2.60;;
28483;SDS011;15704;48.834;8.736;2022-09-23T13:31:02;7.95;;;3.10;;
28483;SDS011;15704;48.834;8.736;2022-09-23T13:34:53;3.58;;;2.42;;
28483;SDS011;15704;48.834;8.736;2022-09-23T14:03:27;5.47;;;2.72;;
28483;SDS011;15704;48.834;8.736;2022-09-23T14:07:17;6.55;;;2.13;;
28483;SDS011;15704;48.834;8.736;2022-09-23T14:11:00;6.00;;;1.85;;
28483;SDS011;15704;48.834;8.736;2022-09-23T14:14:45;7.65;;;2.50;;
28483;SDS011;15704;48.834;8.736;2022-09-23T14:18:33;10.07;;;2.08;;
28483;SDS011;15704;48.834;8.736;2022-09-23T14:22:22;3.75;;;2.75;;
28483;SDS011;15704;48.834;8.736;2022-09-23T14:26:07;3.15;;;2.20;;
28483;SDS011;15704;48.834;8.736;2022-09-23T14:29:49;7.70;;;2.47;;
28483;SDS011;15704;48.834;8.736;2022-09-23T14:33:34;5.05;;;2.30;;
28483;SDS011;15704;48.834;8.736;2022-09-23T14:37:26;4.72;;;2.58;;
28483;SDS011;15704;48.834;8.736;2022-09-23T14:41:28;4.45;;;2.55;;
28483;SDS011;15704;48.834;8.736;2022-09-23T14:45:18;5.43;;;2.15;;
28483;SDS011;15704;48.834;8.736;2022-09-23T14:49:13;5.45;;;2.78;;
28483;SDS011;15704;48.834;8.736;2022-09-23T14:52:59;4.13;;;2.20;;
28483;SDS011;15704;48.834;8.736;2022-09-23T14:56:41;9.68;;;3.13;;
28483;SDS011;15704;48.834;8.736;2022-09-23T15:00:25;4.97;;;2.35;;
28483;SDS011;15704;48.834;8.736;2022-09-23T15:04:10;5.15;;;3.20;;
28483;SDS011;15704;48.834;8.736;2022-09-23T15:07:54;12.13;;;4.05;;
28483;SDS011;15704;48.834;8.736;2022-09-23T15:11:41;14.13;;;5.20;;
28483;SDS011;15704;48.834;8.736;2022-09-23T15:15:24;7.90;;;3.25;;
28483;SDS011;15704;48.834;8.736;2022-09-23T15:19:14;8.30;;;4.03;;
28483;SDS011;15704;48.834;8.736;2022-09-23T15:23:03;5.72;;;2.63;;
28483;SDS011;15704;48.834;8.736;2022-09-23T15:26:47;4.13;;;2.20;;
28483;SDS011;15704;48.834;8.736;2022-09-23T15:30:33;5.53;;;2.33;;
28483;SDS011;15704;48.834;8.736;2022-09-23T15:34:17;4.15;;;2.42;;
28483;SDS011;15704;48.834;8.736;2022-09-23T15:38:00;16.23;;;2.80;;
28483;SDS011;15704;48.834;8.736;2022-09-23T15:41:43;9.75;;;2.42;;
28483;SDS011;15704;48.834;8.736;2022-09-23T15:45:27;4.82;;;2.10;;
28483;SDS011;15704;48.834;8.736;2022-09-23T15:49:16;3.13;;;2.33;;
28483;SDS011;15704;48.834;8.736;2022-09-23T15:53:08;3.80;;;2.20;;
28483;SDS011;15704;48.834;8.736;2022-09-23T15:56:55;5.32;;;2.63;;
28483;SDS011;15704;48.834;8.736;2022-09-23T16:00:38;2.92;;;1.90;;
28483;SDS011;15704;48.834;8.736;2022-09-23T16:04:22;5.05;;;2.25;;
28483;SDS011;15704;48.834;8.736;2022-09-23T16:08:07;3.83;;;2.45;;
28483;SDS011;15704;48.834;8.736;2022-09-23T16:11:50;5.70;;;2.22;;
28483;SDS011;15704;48.834;8.736;2022-09-23T16:15:33;4.43;;;2.17;;
28483;SDS011;15704;48.834;8.736;2022-09-23T16:19:15;4.90;;;2.17;;
28483;SDS011;15704;48.834;8.736;2022-09-23T16:23:00;3.38;;;2.58;;
28483;SDS011;15704;48.834;8.736;2022-09-23T16:26:46;8.10;;;3.00;;
28483;SDS011;15704;48.834;8.736;2022-09-23T16:30:31;10.90;;;2.70;;
28483;SDS011;15704;48.834;8.736;2022-09-23T16:34:15;6.30;;;2.50;;
28483;SDS011;15704;48.834;8.736;2022-09-23T16:37:59;3.33;;;2.13;;
28483;SDS011;15704;48.834;8.736;2022-09-23T16:41:42;6.47;;;2.88;;
28483;SDS011;15704;48.834;8.736;2022-09-23T16:45:25;3.33;;;2.67;;
28483;SDS011;15704;48.834;8.736;2022-09-23T16:49:07;66.93;;;28.08;;
28483;SDS011;15704;48.834;8.736;2022-09-23T16:52:52;34.40;;;14.68;;
28483;SDS011;15704;48.834;8.736;2022-09-23T16:56:38;11.98;;;4.32;;
28483;SDS011;15704;48.834;8.736;2022-09-23T17:00:25;4.20;;;3.00;;
28483;SDS011;15704;48.834;8.736;2022-09-23T17:04:25;8.93;;;2.72;;
28483;SDS011;15704;48.834;8.736;2022-09-23T17:08:08;11.90;;;2.50;;
28483;SDS011;15704;48.834;8.736;2022-09-23T17:11:56;6.60;;;2.90;;
28483;SDS011;15704;48.834;8.736;2022-09-23T17:15:45;7.57;;;2.58;;
28483;SDS011;15704;48.834;8.736;2022-09-23T17:19:28;5.50;;;3.00;;
28483;SDS011;15704;48.834;8.736;2022-09-23T17:23:13;5.53;;;2.90;;
28483;SDS011;15704;48.834;8.736;2022-09-23T17:26:59;7.43;;;3.17;;
28483;SDS011;15704;48.834;8.736;2022-09-23T17:30:42;5.25;;;3.30;;
28483;SDS011;15704;48.834;8.736;2022-09-23T17:34:25;6.80;;;4.57;;
28483;SDS011;15704;48.834;8.736;2022-09-23T17:38:13;8.23;;;4.47;;
28483;SDS011;15704;48.834;8.736;2022-09-23T17:41:55;11.93;;;6.32;;
28483;SDS011;15704;48.834;8.736;2022-09-23T17:45:40;19.60;;;7.30;;
28483;SDS011;15704;48.834;8.736;2022-09-23T17:49:22;16.20;;;8.48;;
28483;SDS011;15704;48.834;8.736;2022-09-23T17:53:05;25.67;;;11.15;;
28483;SDS011;15704;48.834;8.736;2022-09-23T17:56:48;55.55;;;25.20;;
28483;SDS011;15704;48.834;8.736;2022-09-23T18:00:31;44.25;;;22.13;;
28483;SDS011;15704;48.834;8.736;2022-09-23T18:04:15;24.80;;;12.52;;
28483;SDS011;15704;48.834;8.736;2022-09-23T18:07:58;17.75;;;9.73;;
28483;SDS011;15704;48.834;8.736;2022-09-23T18:11:45;28.90;;;14.95;;
28483;SDS011;15704;48.834;8.736;2022-09-23T18:15:29;50.72;;;29.10;;
28483;SDS011;15704;48.834;8.736;2022-09-23T18:19:13;32.33;;;16.23;;
28483;SDS011;15704;48.834;8.736;2022-09-23T18:22:58;21.85;;;11.13;;
28483;SDS011;15704;48.834;8.736;2022-09-23T18:26:44;14.50;;;8.48;;
28483;SDS011;15704;48.834;8.736;2022-09-23T18:30:27;14.32;;;8.60;;
28483;SDS011;15704;48.834;8.736;2022-09-23T18:34:14;13.95;;;8.70;;
28483;SDS011;15704;48.834;8.736;2022-09-23T18:37:58;20.20;;;10.57;;
28483;SDS011;15704;48.834;8.736;2022-09-23T18:41:40;22.30;;;12.43;;
28483;SDS011;15704;48.834;8.736;2022-09-23T18:45:24;19.50;;;10.70;;
28483;SDS011;15704;48.834;8.736;2022-09-23T18:49:07;26.58;;;10.43;;
28483;SDS011;15704;48.834;8.736;2022-09-23T18:53:08;26.35;;;12.10;;
28483;SDS011;15704;48.834;8.736;2022-09-23T18:56:52;29.63;;;12.07;;
28483;SDS011;15704;48.834;8.736;2022-09-23T19:04:18;21.70;;;9.15;;
28483;SDS011;15704;48.834;8.736;2022-09-23T19:08:02;20.88;;;6.90;;
28483;SDS011;15704;48.834;8.736;2022-09-23T19:11:48;15.15;;;4.97;;
28483;SDS011;15704;48.834;8.736;2022-09-23T19:15:32;7.90;;;3.30;;
28483;SDS011;15704;48.834;8.736;2022-09-23T19:19:15;4.18;;;2.92;;
28483;SDS011;15704;48.834;8.736;2022-09-23T19:22:58;6.30;;;2.38;;
28483;SDS011;15704;48.834;8.736;2022-09-23T19:26:40;4.30;;;2.90;;
28483;SDS011;15704;48.834;8.736;2022-09-23T19:30:25;7.18;;;3.63;;
28483;SDS011;15704;48.834;8.736;2022-09-23T19:34:11;4.47;;;3.40;;
28483;SDS011;15704;48.834;8.736;2022-09-23T19:37:57;5.18;;;3.30;;
28483;SDS011;15704;48.834;8.736;2022-09-23T19:41:42;10.63;;;3.67;;
28483;SDS011;15704;48.834;8.736;2022-09-23T19:45:26;5.82;;;3.40;;
28483;SDS011;15704;48.834;8.736;2022-09-23T19:49:14;7.10;;;3.70;;
28483;SDS011;15704;48.834;8.736;2022-09-23T19:52:58;8.63;;;3.88;;
28483;SDS011;15704;48.834;8.736;2022-09-23T19:56:41;6.88;;;3.95;;
28483;SDS011;15704;48.834;8.736;2022-09-23T20:04:10;6.75;;;4.13;;
28483;SDS011;15704;48.834;8.736;2022-09-23T20:07:58;8.05;;;4.47;;
28483;SDS011;15704;48.834;8.736;2022-09-23T20:11:42;8.95;;;3.92;;
28483;SDS011;15704;48.834;8.736;2022-09-23T20:15:24;6.27;;;3.90;;
28483;SDS011;15704;48.834;8.736;2022-09-23T20:19:09;5.93;;;3.30;;
28483;SDS011;15704;48.834;8.736;2022-09-23T20:22:52;8.85;;;4.60;;
28483;SDS011;15704;48.834;8.736;2022-09-23T20:26:35;7.37;;;4.87;;
28483;SDS011;15704;48.834;8.736;2022-09-23T20:30:37;9.20;;;5.95;;
28483;SDS011;15704;48.834;8.736;2022-09-23T20:34:22;8.45;;;4.30;;
28483;SDS011;15704;48.834;8.736;2022-09-23T20:38:05;10.23;;;4.68;;
28483;SDS011;15704;48.834;8.736;2022-09-23T20:41:49;7.22;;;4.22;;
28483;SDS011;15704;48.834;8.736;2022-09-23T20:49:16;10.90;;;5.22;;
28483;SDS011;15704;48.834;8.736;2022-09-23T20:52:59;8.27;;;4.68;;
28483;SDS011;15704;48.834;8.736;2022-09-23T20:56:42;7.95;;;4.60;;
28483;SDS011;15704;48.834;8.736;2022-09-23T21:00:25;7.68;;;4.45;;
28483;SDS011;15704;48.834;8.736;2022-09-23T21:04:07;8.88;;;4.90;;
28483;SDS011;15704;48.834;8.736;2022-09-23T21:07:52;7.85;;;4.32;;
28483;SDS011;15704;48.834;8.736;2022-09-23T21:11:38;9.93;;;4.65;;
28483;SDS011;15704;48.834;8.736;2022-09-23T21:15:20;5.78;;;4.25;;
28483;SDS011;15704;48.834;8.736;2022-09-23T21:19:03;10.75;;;3.88;;
28483;SDS011;15704;48.834;8.736;2022-09-23T21:22:48;11.52;;;4.00;;
28483;SDS011;15704;48.834;8.736;2022-09-23T21:26:31;10.57;;;4.30;;
28483;SDS011;15704;48.834;8.736;2022-09-23T21:30:15;6.43;;;3.92;;
28483;SDS011;15704;48.834;8.736;2022-09-23T21:33:59;9.60;;;4.13;;
28483;SDS011;15704;48.834;8.736;2022-09-23T21:37:43;6.00;;;3.28;;
28483;SDS011;15704;48.834;8.736;2022-09-23T21:41:26;9.25;;;4.00;;
28483;SDS011;15704;48.834;8.736;2022-09-23T21:45:10;6.38;;;3.60;;
28483;SDS011;15704;48.834;8.736;2022-09-23T21:48:53;8.13;;;3.30;;
28483;SDS011;15704;48.834;8.736;2022-09-23T21:52:37;5.72;;;3.35;;
28483;SDS011;15704;48.834;8.736;2022-09-23T21:56:23;7.53;;;3.45;;
28483;SDS011;15704;48.834;8.736;2022-09-23T22:00:11;5.10;;;3.67;;
28483;SDS011;15704;48.834;8.736;2022-09-23T22:03:54;7.35;;;3.15;;
28483;SDS011;15704;48.834;8.736;2022-09-23T22:07:38;11.27;;;3.40;;
28483;SDS011;15704;48.834;8.736;2022-09-23T22:11:22;4.82;;;3.58;;
28483;SDS011;15704;48.834;8.736;2022-09-23T22:15:23;5.80;;;3.25;;
28483;SDS011;15704;48.834;8.736;2022-09-23T22:19:06;11.13;;;3.38;;
28483;SDS011;15704;48.834;8.736;2022-09-23T22:22:49;10.23;;;3.75;;
28483;SDS011;15704;48.834;8.736;2022-09-23T22:30:16;7.47;;;3.22;;
28483;SDS011;15704;48.834;8.736;2022-09-23T22:34:18;13.15;;;3.70;;
28483;SDS011;15704;48.834;8.736;2022-09-23T22:52:50;6.82;;;3.63;;
28483;SDS011;15704;48.834;8.736;2022-09-23T22:56:33;6.72;;;3.97;;
28483;SDS011;15704;48.834;8.736;2022-09-23T23:00:16;6.45;;;3.78;;
28483;SDS011;15704;48.834;8.736;2022-09-23T23:04:00;9.07;;;3.75;;
28483;SDS011;15704;48.834;8.736;2022-09-23T23:07:43;5.13;;;3.50;;
28483;SDS011;15704;48.834;8.736;2022-09-23T23:11:27;5.20;;;3.33;;
28483;SDS011;15704;48.834;8.736;2022-09-23T23:15:10;10.27;;;3.70;;
28483;SDS011;15704;48.834;8.736;2022-09-23T23:18:53;10.10;;;4.90;;
28483;SDS011;15704;48.834;8.736;2022-09-23T23:22:35;4.90;;;3.47;;
28483;SDS011;15704;48.834;8.736;2022-09-23T23:26:18;6.00;;;4.10;;
28483;SDS011;15704;48.834;8.736;2022-09-23T23:30:04;6.65;;;3.60;;
28483;SDS011;15704;48.834;8.736;2022-09-23T23:33:48;7.10;;;3.67;;
28483;SDS011;15704;48.834;8.736;2022-09-23T23:37:31;5.80;;;3.88;;
28483;SDS011;15704;48.834;8.736;2022-09-23T23:41:14;23.70;;;4.27;;
28483;SDS011;15704;48.834;8.736;2022-09-23T23:44:58;5.53;;;3.65;;
28483;SDS011;15704;48.834;8.736;2022-09-23T23:48:42;4.67;;;3.50;;
28483;SDS011;15704;48.834;8.736;2022-09-23T23:52:27;4.82;;;3.50;;
28483;SDS011;15704;48.834;8.736;2022-09-23T23:56:11;16.43;;;3.60;;